Time;durP1;ratioP1;P1;durP2;ratioP2;P2;SDS_P1;SDS_P2;PMS_P1;PMS_P2;Temp;Humidity;BMP_temperature;BMP_pressure;BME280_temperature;BME280_humidity;BME280_pressure;Samples;Min_cycle;Max_cycle;Signal;HPM_P1;HPM_P2
2022/08/07 00:01:25;;;;;;;8.48;6.70;;;;;;;26.58;56.08;99260.81;5153787;27;20392;-43
2022/08/07 00:03:50;;;;;;;8.73;6.75;;;;;;;27.30;53.68;99259.28;5154062;27;20169;-45
2022/08/07 00:06:16;;;;;;;7.97;7.13;;;;;;;26.68;55.84;99271.41;5153718;27;20034;-44
2022/08/07 00:08:41;;;;;;;9.05;7.00;;;;;;;26.36;56.83;99263.69;5135269;27;20351;-44
2022/08/07 00:11:07;;;;;;;7.97;7.18;;;;;;;26.49;56.64;99265.47;5153843;27;20380;-37
2022/08/07 00:13:36;;;;;;;11.43;7.22;;;;;;;26.62;55.79;99253.63;5154182;27;20022;-37
2022/08/07 00:16:02;;;;;;;12.05;7.45;;;;;;;27.20;53.88;99259.59;5153696;27;20034;-37
2022/08/07 00:18:28;;;;;;;8.95;6.85;;;;;;;26.72;55.07;99266.91;5153070;27;20041;-37
2022/08/07 00:21:02;;;;;;;7.63;6.32;;;;;;;26.52;55.46;99267.53;5153581;27;20033;-45
2022/08/07 00:23:32;;;;;;;7.78;6.97;;;;;;;26.47;56.22;99262.25;5153243;27;20030;-43
2022/08/07 00:25:59;;;;;;;10.40;6.88;;;;;;;26.53;55.35;99248.13;5153584;27;20061;-37
2022/08/07 00:28:25;;;;;;;7.55;6.50;;;;;;;27.08;53.60;99254.03;5153031;27;20447;-37
2022/08/07 00:30:51;;;;;;;7.63;6.57;;;;;;;26.42;55.65;99262.41;5134913;27;20117;-37
2022/08/07 00:33:16;;;;;;;8.52;6.60;;;;;;;26.20;56.01;99258.72;5153489;27;20027;-37
2022/08/07 00:35:42;;;;;;;7.43;6.53;;;;;;;26.25;56.12;99249.56;5153510;27;20027;-44
2022/08/07 00:38:07;;;;;;;8.38;6.22;;;;;;;26.34;56.11;99250.38;5152920;27;20042;-43
2022/08/07 00:40:33;;;;;;;8.07;6.40;;;;;;;26.71;54.32;99250.88;5152541;27;20098;-44
2022/08/07 00:42:58;;;;;;;7.40;6.35;;;;;;;26.34;55.52;99248.44;5153051;27;20120;-42
2022/08/07 00:45:23;;;;;;;7.82;6.50;;;;;;;26.13;56.42;99247.47;5153172;27;20081;-43
2022/08/07 00:47:49;;;;;;;7.88;6.35;;;;;;;26.13;56.30;99250.22;5153231;27;20023;-44
2022/08/07 00:50:16;;;;;;;8.63;6.40;;;;;;;26.08;56.38;99256.63;5152721;27;20019;-42
2022/08/07 00:52:42;;;;;;;7.57;6.28;;;;;;;26.55;54.78;99260.66;5153100;27;20030;-43
2022/08/07 00:55:08;;;;;;;8.93;6.50;;;;;;;26.14;56.12;99252.63;5152883;27;20038;-43
2022/08/07 00:57:34;;;;;;;8.77;6.43;;;;;;;25.94;57.12;99251.28;5135746;27;20023;-37
2022/08/07 01:00:00;;;;;;;7.93;6.18;;;;;;;26.04;56.67;99263.00;5152315;27;20401;-37
2022/08/07 01:02:26;;;;;;;8.45;6.50;;;;;;;26.05;56.85;99264.63;5152617;27;20470;-37
2022/08/07 01:04:52;;;;;;;7.63;6.90;;;;;;;26.59;55.01;99258.88;5152838;27;20037;-37
2022/08/07 01:07:21;;;;;;;11.07;6.72;;;;;;;26.24;56.01;99251.50;5152925;27;20494;-37
2022/08/07 01:09:47;;;;;;;8.63;7.03;;;;;;;26.03;56.72;99258.69;5152488;27;20442;-42
2022/08/07 01:12:16;;;;;;;9.27;7.13;;;;;;;25.97;57.02;99260.78;5152884;27;20034;-43
2022/08/07 01:14:42;;;;;;;12.73;7.15;;;;;;;25.96;57.45;99261.88;5153114;27;20031;-45
2022/08/07 01:17:09;;;;;;;9.15;7.30;;;;;;;26.50;55.29;99254.25;5152628;27;20027;-37
2022/08/07 01:19:34;;;;;;;8.68;7.13;;;;;;;26.14;56.42;99252.63;5152705;27;20405;-37
2022/08/07 01:22:01;;;;;;;10.82;7.28;;;;;;;25.91;57.31;99253.81;5152104;27;20033;-37
2022/08/07 01:24:28;;;;;;;8.80;7.20;;;;;;;26.01;56.69;99247.28;5152515;27;20528;-37
2022/08/07 01:26:54;;;;;;;8.30;6.97;;;;;;;26.14;56.25;99252.63;5152455;27;20050;-43
2022/08/07 01:29:23;;;;;;;10.35;7.40;;;;;;;26.59;55.01;99246.06;5152673;27;20023;-43
2022/08/07 01:31:49;;;;;;;9.73;7.63;;;;;;;26.17;56.24;99251.16;5152063;27;20470;-42
2022/08/07 01:34:16;;;;;;;9.63;6.90;;;;;;;25.88;56.78;99244.38;5152640;27;20034;-37
2022/08/07 01:36:42;;;;;;;7.05;6.35;;;;;;;26.09;55.87;99255.50;5152551;27;20022;-37
2022/08/07 01:39:08;;;;;;;8.20;6.38;;;;;;;26.09;55.98;99251.97;5152435;27;20099;-37
2022/08/07 01:41:34;;;;;;;7.70;6.30;;;;;;;26.28;54.99;99241.56;5148615;27;20057;-37
2022/08/07 01:44:00;;;;;;;7.30;6.50;;;;;;;25.78;56.62;99244.66;5131383;28;20027;-37
2022/08/07 01:46:26;;;;;;;6.88;6.15;;;;;;;25.54;57.19;99245.88;5131834;28;20027;-37
2022/08/07 01:48:51;;;;;;;9.20;6.60;;;;;;;25.71;56.70;99238.88;5131211;28;20027;-37
2022/08/07 01:51:20;;;;;;;7.13;5.95;;;;;;;25.91;56.11;99242.91;5131502;28;20114;-43
2022/08/07 01:53:49;;;;;;;8.50;6.73;;;;;;;26.07;55.40;99237.84;5134474;27;20038;-42
2022/08/07 01:56:21;;;;;;;7.45;5.97;;;;;;;25.62;56.80;99246.22;5135429;27;20027;-43
2022/08/07 01:58:56;;;;;;;6.65;5.95;;;;;;;25.48;56.98;99230.00;5146780;27;20057;-43
2022/08/07 02:01:25;;;;;;;8.18;6.13;;;;;;;25.52;57.05;99245.38;5156492;27;20019;-43
2022/08/07 02:03:59;;;;;;;;;;;;;;;25.75;56.60;99240.63;5156412;27;20090;-44
2022/08/07 02:06:29;;;;;;;6.82;6.00;;;;;;;26.40;54.17;99246.38;5156217;27;19978;-44
2022/08/07 02:08:56;;;;;;;7.45;6.32;;;;;;;25.65;56.59;99242.88;5155934;27;20482;-43
2022/08/07 02:11:21;;;;;;;7.00;6.30;;;;;;;25.46;57.14;99241.19;5156105;27;20038;-44
2022/08/07 02:13:49;;;;;;;7.10;6.40;;;;;;;25.68;56.49;99248.50;5155665;27;20030;-43
2022/08/07 02:16:17;;;;;;;7.07;6.10;;;;;;;25.78;56.13;99238.41;5155821;27;20320;-45
2022/08/07 02:18:44;;;;;;;8.47;6.40;;;;;;;25.73;56.13;99242.09;5155614;27;20105;-43
2022/08/07 02:21:10;;;;;;;8.65;6.32;;;;;;;25.29;57.49;99235.69;5156017;27;20023;-43
2022/08/07 02:23:38;;;;;;;9.00;6.38;;;;;;;25.16;58.36;99232.69;5155672;27;20034;-37
2022/08/07 02:26:07;;;;;;;7.23;6.43;;;;;;;25.39;57.62;99235.41;5155894;27;20405;-37
2022/08/07 02:28:35;;;;;;;7.07;6.25;;;;;;;25.49;57.31;99235.13;5155847;27;20034;-37
2022/08/07 02:31:03;;;;;;;8.50;7.18;;;;;;;25.58;56.49;99235.16;5155760;27;20559;-37
2022/08/07 02:33:30;;;;;;;8.48;6.28;;;;;;;25.20;57.82;99238.31;5156031;27;20129;-37
2022/08/07 02:35:57;;;;;;;7.28;6.45;;;;;;;25.21;57.86;99230.94;5155173;27;20424;-42
2022/08/07 02:38:26;;;;;;;6.80;6.10;;;;;;;25.05;58.38;99239.53;5155236;27;20349;-43
2022/08/07 02:40:53;;;;;;;7.35;6.53;;;;;;;25.13;57.98;99224.34;5155468;27;20035;-37
2022/08/07 02:43:19;;;;;;;7.72;6.50;;;;;;;25.41;56.75;99230.44;5155497;27;20433;-37
2022/08/07 02:45:46;;;;;;;7.32;6.30;;;;;;;25.34;57.10;99232.81;5155470;27;20018;-38
2022/08/07 02:48:12;;;;;;;8.95;6.50;;;;;;;25.21;57.67;99230.94;5155246;27;20118;-38
2022/08/07 02:50:43;;;;;;;7.57;6.43;;;;;;;25.39;57.16;99238.13;5155122;27;20036;-38
2022/08/07 02:53:11;;;;;;;7.20;6.15;;;;;;;25.58;56.66;99231.63;5155036;27;20031;-38
2022/08/07 02:55:43;;;;;;;6.90;6.20;;;;;;;25.88;55.37;99246.28;5154886;27;20442;-38
2022/08/07 02:58:15;;;;;;;7.40;6.22;;;;;;;25.45;56.88;99238.78;5136927;27;20297;-44
2022/08/07 03:00:42;;;;;;;6.35;5.68;;;;;;;25.32;57.27;99240.47;5134342;27;20019;-45
2022/08/07 03:03:09;;;;;;;7.25;5.75;;;;;;;25.45;57.03;99242.31;5134560;27;20406;-48
2022/08/07 03:05:36;;;;;;;8.13;6.40;;;;;;;25.53;56.35;99235.28;5133888;27;20475;-43
2022/08/07 03:08:04;;;;;;;6.85;6.15;;;;;;;25.42;56.70;99239.41;5133986;27;20023;-43
2022/08/07 03:10:31;;;;;;;6.95;6.20;;;;;;;25.36;56.88;99238.75;5134089;27;20489;-43
2022/08/07 03:12:57;;;;;;;8.07;5.93;;;;;;;25.38;56.92;99239.25;5134361;27;20096;-37
2022/08/07 03:15:23;;;;;;;6.80;6.13;;;;;;;25.49;56.64;99237.84;5134082;27;20398;-38
2022/08/07 03:17:50;;;;;;;6.75;5.88;;;;;;;25.75;55.75;99240.63;5134023;27;20035;-37
2022/08/07 03:20:15;;;;;;;6.90;6.00;;;;;;;25.89;55.09;99243.25;5134097;27;20026;-37
2022/08/07 03:22:41;;;;;;;9.82;6.13;;;;;;;25.73;55.38;99242.88;5133910;27;20015;-38
2022/08/07 03:25:08;;;;;;;7.05;6.22;;;;;;;25.59;56.00;99246.84;5133968;27;20051;-37
2022/08/07 03:27:34;;;;;;;8.50;6.03;;;;;;;25.63;55.65;99254.06;5134108;27;20035;-38
2022/08/07 03:30:00;;;;;;;6.57;5.95;;;;;;;25.77;55.28;99258.59;5133666;27;20466;-37
2022/08/07 03:32:32;;;;;;;7.40;6.10;;;;;;;26.37;53.46;99255.22;5134011;27;20033;-45
2022/08/07 03:35:00;;;;;;;6.75;6.15;;;;;;;26.10;54.35;99262.56;5134027;27;20023;-43
2022/08/07 03:37:28;;;;;;;6.30;5.67;;;;;;;25.90;54.96;99263.13;5133720;27;20483;-43
2022/08/07 03:39:53;;;;;;;6.78;5.70;;;;;;;25.97;54.44;99262.69;5133147;27;20272;-43
2022/08/07 03:42:19;;;;;;;6.70;5.90;;;;;;;26.15;54.38;99264.31;5133691;27;20023;-42
2022/08/07 03:44:45;;;;;;;7.32;5.70;;;;;;;26.30;53.64;99263.06;5133763;27;20023;-43
2022/08/07 03:47:11;;;;;;;8.07;6.10;;;;;;;25.97;54.47;99265.41;5133641;27;20080;-43
2022/08/07 03:49:38;;;;;;;6.72;6.00;;;;;;;25.72;55.16;99268.53;5133441;27;20144;-42
2022/08/07 03:52:05;;;;;;;7.03;6.05;;;;;;;25.79;55.21;99264.53;5133548;27;20035;-41
2022/08/07 03:54:31;;;;;;;7.85;5.85;;;;;;;25.97;54.51;99263.50;5133168;27;20031;-43
2022/08/07 03:56:57;;;;;;;6.60;5.90;;;;;;;26.47;53.09;99267.72;5133205;27;20037;-43
2022/08/07 03:59:26;;;;;;;6.45;5.85;;;;;;;26.31;53.60;99265.47;5149111;27;20155;-42
2022/08/07 04:01:54;;;;;;;7.07;6.00;;;;;;;26.00;54.41;99262.06;5153110;27;20041;-42
2022/08/07 04:04:20;;;;;;;8.85;6.30;;;;;;;25.64;55.14;99244.78;5153662;27;20023;-42
2022/08/07 04:06:46;;;;;;;6.63;5.80;;;;;;;25.96;54.70;99266.53;5154043;27;20030;-41
2022/08/07 04:09:12;;;;;;;7.55;5.97;;;;;;;26.37;53.32;99274.28;5154102;27;20390;-43
2022/08/07 04:11:40;;;;;;;7.85;5.97;;;;;;;26.14;53.98;99271.72;5153628;27;20030;-42
2022/08/07 04:14:06;;;;;;;8.10;5.70;;;;;;;25.85;54.81;99271.44;5153803;27;20031;-41
2022/08/07 04:16:32;;;;;;;6.68;6.07;;;;;;;25.90;54.95;99266.66;5152438;27;20030;-43
2022/08/07 04:18:59;;;;;;;6.97;6.28;;;;;;;26.11;54.09;99274.25;5153253;27;20026;-44
2022/08/07 04:21:24;;;;;;;6.47;5.88;;;;;;;26.53;53.01;99259.03;5153457;27;20027;-45
2022/08/07 04:23:50;;;;;;;7.40;6.38;;;;;;;26.34;53.61;99272.19;5153154;27;20050;-36
2022/08/07 04:26:16;;;;;;;10.55;6.65;;;;;;;26.11;54.49;99263.34;5153057;27;20450;-36
2022/08/07 04:28:42;;;;;;;7.70;5.82;;;;;;;26.12;54.49;99268.50;5153376;27;20087;-37
2022/08/07 04:31:08;;;;;;;9.35;6.13;;;;;;;26.35;53.72;99268.38;5153382;27;20441;-37
2022/08/07 04:33:35;;;;;;;9.30;6.22;;;;;;;26.40;53.77;99270.13;5153090;27;20095;-37
2022/08/07 04:36:01;;;;;;;7.72;6.18;;;;;;;26.80;52.43;99268.03;5153230;27;20019;-38
2022/08/07 04:38:27;;;;;;;7.85;6.38;;;;;;;26.24;53.94;99273.31;5153084;27;20195;-37
2022/08/07 04:40:53;;;;;;;7.03;6.00;;;;;;;26.32;53.82;99274.44;5153033;27;20121;-38
2022/08/07 04:43:32;;;;;;;10.30;6.18;;;;;;;26.39;53.35;99274.78;5152813;27;20120;-36
2022/08/07 04:46:15;;;;;;;8.63;6.07;;;;;;;26.39;53.40;99274.78;5153171;27;20022;-35
2022/08/07 04:48:41;;;;;;;9.18;7.00;;;;;;;26.68;52.58;99276.09;5152891;27;20513;-37
2022/08/07 04:51:32;;;;;;;10.00;8.68;;;;;;;26.51;53.17;99283.09;5152388;27;20022;-37
2022/08/07 04:54:19;;;;;;;8.20;7.40;;;;;;;26.51;53.05;99283.09;5132083;27;20034;-37
2022/08/07 04:56:58;;;;;;;28.67;25.70;;;;;;;26.89;52.50;99287.13;5132004;27;20386;-36
2022/08/07 04:59:42;;;;;;;12.20;9.87;;;;;;;27.29;51.57;99290.44;5148621;27;20417;-37
2022/08/07 05:02:26;;;;;;;9.68;8.30;;;;;;;27.21;51.56;99288.53;5152995;27;20068;-38
2022/08/07 05:04:52;;;;;;;7.32;6.40;;;;;;;27.01;52.40;99284.53;5152781;27;20035;-37
2022/08/07 05:07:32;;;;;;;9.05;6.35;;;;;;;27.18;51.87;99286.44;5153198;27;20083;-38
2022/08/07 05:10:21;;;;;;;7.10;6.35;;;;;;;27.37;51.39;99285.28;5152700;27;20095;-39
2022/08/07 05:12:53;;;;;;;8.70;6.22;;;;;;;27.83;49.80;99295.38;5153130;27;20030;-39
2022/08/07 05:15:30;;;;;;;9.05;6.28;;;;;;;27.55;51.16;99300.50;5152333;27;20488;-38
2022/08/07 05:18:15;;;;;;;8.93;6.53;;;;;;;27.44;50.97;99297.31;5152939;27;20026;-37
2022/08/07 05:20:45;;;;;;;7.13;6.40;;;;;;;27.51;51.13;99294.06;5152713;27;20027;-37
2022/08/07 05:23:15;;;;;;;9.48;6.13;;;;;;;27.91;49.77;99292.94;5152637;27;20470;-36
2022/08/07 05:25:42;;;;;;;10.18;6.75;;;;;;;28.46;48.61;99300.97;5152171;27;20065;-37
2022/08/07 05:28:09;;;;;;;7.60;6.55;;;;;;;28.32;48.92;99296.88;5151871;27;20027;-42
2022/08/07 05:30:36;;;;;;;9.75;7.38;;;;;;;28.08;49.44;99307.34;5152310;27;20050;-42
2022/08/07 05:33:03;;;;;;;12.32;7.93;;;;;;;28.30;49.11;99307.38;5152694;27;20027;-42
2022/08/07 05:35:31;;;;;;;7.55;6.43;;;;;;;28.55;48.58;99319.28;5152286;27;20082;-42
2022/08/07 05:37:58;;;;;;;9.00;6.32;;;;;;;28.94;47.31;99314.41;5152004;27;20022;-43
2022/08/07 05:40:23;;;;;;;7.32;6.38;;;;;;;28.88;47.74;99326.72;5151645;27;20477;-37
2022/08/07 05:42:49;;;;;;;9.32;7.00;;;;;;;28.55;48.80;99313.81;5151624;27;20026;-37
2022/08/07 05:45:15;;;;;;;8.60;7.15;;;;;;;28.59;48.79;99317.47;5151818;27;20027;-36
2022/08/07 05:47:41;;;;;;;10.45;6.68;;;;;;;28.62;48.56;99314.88;5151460;27;20027;-36
2022/08/07 05:50:07;;;;;;;10.98;6.40;;;;;;;28.66;48.44;99323.22;5151139;27;20025;-37
2022/08/07 05:52:33;;;;;;;7.22;6.32;;;;;;;29.34;46.40;99325.66;5151532;27;20105;-36
2022/08/07 05:55:00;;;;;;;8.10;6.20;;;;;;;28.85;47.71;99333.69;5132837;27;20105;-36
2022/08/07 05:57:26;;;;;;;7.78;5.97;;;;;;;28.58;48.35;99326.81;5136053;27;20027;-36
2022/08/07 05:59:53;;;;;;;7.75;6.43;;;;;;;28.62;48.09;99330.50;5131188;27;20027;-36
2022/08/07 06:02:20;;;;;;;9.50;6.15;;;;;;;28.97;47.41;99339.19;5130640;28;20053;-44
2022/08/07 06:05:00;;;;;;;6.95;6.25;;;;;;;29.61;45.84;99335.19;5139125;27;20018;-43
2022/08/07 06:07:27;;;;;;;12.55;7.00;;;;;;;29.58;46.46;99330.34;5130317;28;20516;-45
2022/08/07 06:09:53;;;;;;;9.10;6.50;;;;;;;30.04;45.58;99337.72;5134071;27;20042;-46
2022/08/07 06:12:19;;;;;;;7.10;6.30;;;;;;;30.59;44.44;99334.34;5138391;27;20105;-43
2022/08/07 06:14:45;;;;;;;7.55;6.53;;;;;;;31.18;43.03;99343.84;5139223;27;20145;-43
2022/08/07 06:17:12;;;;;;;8.65;6.45;;;;;;;32.00;41.62;99347.13;5145227;27;20358;-37
2022/08/07 06:19:39;;;;;;;10.05;6.32;;;;;;;32.48;39.87;99339.59;5151174;27;20027;-43
2022/08/07 06:22:06;;;;;;;8.38;5.90;;;;;;;32.79;39.25;99342.63;5151196;27;20029;-44
2022/08/07 06:24:31;;;;;;;7.05;5.35;;;;;;;33.11;38.93;99338.53;5151097;27;20085;-45
2022/08/07 06:26:57;;;;;;;6.47;5.80;;;;;;;33.56;38.13;99338.13;5150730;27;20497;-45
2022/08/07 06:29:27;;;;;;;6.38;5.57;;;;;;;34.08;36.54;99342.13;5146411;27;20390;-42
2022/08/07 06:31:52;;;;;;;6.25;5.32;;;;;;;33.94;36.05;99341.94;5146799;27;20155;-37
2022/08/07 06:34:18;;;;;;;5.65;5.03;;;;;;;33.78;35.97;99342.09;5149994;27;20088;-37
2022/08/07 06:36:43;;;;;;;6.70;5.38;;;;;;;33.88;36.28;99339.47;5150532;27;20031;-41
2022/08/07 06:39:08;;;;;;;6.00;5.32;;;;;;;34.21;35.41;99337.22;5151293;27;20049;-44
2022/08/07 06:41:48;;;;;;;6.43;4.90;;;;;;;35.00;34.16;99336.28;5154367;27;20366;-44
2022/08/07 06:44:15;;;;;;;5.40;4.90;;;;;;;35.13;33.61;99339.59;5154645;27;20026;-38
2022/08/07 06:46:41;;;;;;;5.95;5.32;;;;;;;35.42;33.07;99340.69;5152491;27;20023;-37
2022/08/07 06:49:07;;;;;;;5.78;5.25;;;;;;;35.92;32.41;99350.59;5133061;27;20114;-37
2022/08/07 06:51:34;;;;;;;6.40;5.00;;;;;;;36.23;31.49;99340.94;5133010;27;20042;-37
2022/08/07 06:54:02;;;;;;;7.18;4.78;;;;;;;36.77;30.11;99344.78;5133137;27;20378;-37
2022/08/07 06:56:38;;;;;;;6.38;5.15;;;;;;;35.91;31.17;99341.53;5133340;27;20037;-37
2022/08/07 06:59:07;;;;;;;5.60;5.10;;;;;;;36.32;30.46;99340.59;5147050;27;20109;-38
2022/08/07 07:01:33;;;;;;;;;;;;;;;36.65;30.02;99339.59;5154382;27;20054;-36
2022/08/07 07:03:59;;;;;;;7.50;5.22;;;;;;;36.98;30.06;99335.75;5153800;27;19946;-35
2022/08/07 07:06:24;;;;;;;5.18;4.78;;;;;;;37.23;29.36;99337.81;5154031;27;20018;-37
2022/08/07 07:08:50;;;;;;;7.60;5.22;;;;;;;37.10;29.77;99333.81;5154437;27;20039;-38
2022/08/07 07:11:15;;;;;;;5.28;4.85;;;;;;;37.10;29.61;99336.56;5154236;27;20534;-36
2022/08/07 07:13:46;;;;;;;6.28;5.07;;;;;;;37.24;29.65;99350.47;5153848;27;20454;-38
2022/08/07 07:16:16;;;;;;;5.70;5.20;;;;;;;37.36;29.56;99335.47;5153736;27;20022;-38
2022/08/07 07:18:54;;;;;;;8.52;5.03;;;;;;;37.52;29.64;99348.94;5153817;27;20019;-35
2022/08/07 07:21:23;;;;;;;6.22;5.45;;;;;;;37.07;29.62;99340.94;5153831;27;20050;-36
2022/08/07 07:23:50;;;;;;;6.00;5.43;;;;;;;37.62;29.08;99344.59;5153220;27;20391;-38
2022/08/07 07:26:18;;;;;;;6.85;5.80;;;;;;;38.03;27.96;99346.97;5153695;27;20042;-37
2022/08/07 07:28:56;;;;;;;8.65;5.72;;;;;;;38.10;27.57;99341.44;5153371;27;20462;-38
2022/08/07 07:31:27;;;;;;;5.97;5.07;;;;;;;38.08;27.46;99346.56;5153730;27;20031;-39
2022/08/07 07:34:00;;;;;;;5.82;4.90;;;;;;;38.44;26.90;99343.69;5153098;27;20054;-42
2022/08/07 07:36:27;;;;;;;6.43;4.95;;;;;;;38.65;26.58;99349.22;5153500;27;20031;-44
2022/08/07 07:38:52;;;;;;;11.82;5.10;;;;;;;38.86;26.77;99353.09;5153380;27;20051;-43
2022/08/07 07:41:21;;;;;;;6.07;5.20;;;;;;;38.24;26.98;99351.72;5154143;27;20026;-44
2022/08/07 07:43:49;;;;;;;8.43;6.50;;;;;;;37.86;27.49;99356.91;5153571;27;20519;-44
2022/08/07 07:46:15;;;;;;;6.50;5.90;;;;;;;38.13;27.05;99362.84;5152835;27;20018;-37
2022/08/07 07:48:41;;;;;;;5.90;5.30;;;;;;;37.63;27.61;99360.09;5153168;27;20430;-39
2022/08/07 07:51:08;;;;;;;7.55;5.35;;;;;;;36.73;28.80;99366.16;5153074;27;20037;-38
2022/08/07 07:53:38;;;;;;;5.90;5.28;;;;;;;35.89;29.61;99354.94;5153149;27;20052;-37
2022/08/07 07:56:06;;;;;;;7.50;5.53;;;;;;;35.55;30.18;99362.53;5153281;27;20023;-37
2022/08/07 07:58:35;;;;;;;6.03;4.70;;;;;;;35.72;29.10;99367.47;5152588;27;20588;-37
2022/08/07 08:01:03;;;;;;;5.90;4.95;;;;;;;36.04;29.03;99360.56;5151502;27;20027;-37
2022/08/07 08:03:30;;;;;;;6.18;5.03;;;;;;;36.00;29.31;99364.13;5151988;27;20083;-37
2022/08/07 08:05:56;;;;;;;9.93;5.07;;;;;;;35.65;29.68;99358.28;5151405;27;20023;-37
2022/08/07 08:08:31;;;;;;;10.38;5.22;;;;;;;35.12;30.16;99353.78;5151880;27;20395;-42
2022/08/07 08:10:58;;;;;;;6.30;4.95;;;;;;;35.57;29.90;99354.66;5151734;27;20035;-43
2022/08/07 08:13:26;;;;;;;5.90;5.32;;;;;;;35.36;30.20;99356.03;5152464;27;20018;-45
2022/08/07 08:15:52;;;;;;;5.70;5.10;;;;;;;35.70;28.96;99364.28;5150638;27;20041;-43
2022/08/07 08:18:21;;;;;;;5.90;5.25;;;;;;;35.88;29.43;99350.56;5147817;27;20025;-46
2022/08/07 08:20:48;;;;;;;6.60;5.90;;;;;;;35.93;28.84;99358.53;5132285;27;20501;-46
2022/08/07 08:28:36;;;;;;;6.50;5.75;;;;;;;37.58;27.26;99346.56;5131185;27;20137;-44
2022/08/07 08:31:04;;;;;;;6.32;5.63;;;;;;;37.99;26.58;99346.97;5130493;27;20034;-43
2022/08/07 08:33:33;;;;;;;6.25;5.63;;;;;;;37.29;26.71;99352.88;5138197;27;20105;-44
2022/08/07 08:36:01;;;;;;;6.50;5.90;;;;;;;36.91;27.22;99357.13;5148983;27;20019;-45
2022/08/07 08:38:42;;;;;;;5.82;5.18;;;;;;;36.41;27.73;99341.06;5151296;27;20062;-44
2022/08/07 08:41:52;;;;;;;6.60;5.50;;;;;;;35.92;29.19;99350.59;5152276;27;20026;-44
2022/08/07 08:44:29;;;;;;;8.20;5.65;;;;;;;36.43;29.00;99341.47;5151143;27;20474;-46
2022/08/07 08:47:02;;;;;;;6.72;5.78;;;;;;;36.68;27.99;99340.81;5151133;27;20105;-44
2022/08/07 08:49:49;;;;;;;6.35;5.75;;;;;;;37.44;26.64;99336.25;5150863;27;20023;-46
2022/08/07 08:52:24;;;;;;;6.25;5.65;;;;;;;38.12;25.10;99330.72;5151368;27;20086;-45
2022/08/07 08:54:58;;;;;;;7.05;5.78;;;;;;;37.61;24.55;99332.72;5151279;27;20485;-43
2022/08/07 08:57:46;;;;;;;6.05;4.68;;;;;;;36.37;26.06;99329.94;5151931;27;20022;-45
2022/08/07 09:00:12;;;;;;;5.18;4.68;;;;;;;35.26;27.56;99331.81;5130869;27;20382;-45
2022/08/07 09:02:38;;;;;;;6.03;4.30;;;;;;;35.85;27.19;99326.44;5131185;27;20381;-44
2022/08/07 09:05:27;;;;;;;7.55;5.80;;;;;;;35.85;27.53;99326.44;5139172;27;20221;-46
2022/08/07 09:08:02;;;;;;;8.77;5.43;;;;;;;35.80;27.61;99329.56;5152537;27;20398;-42
2022/08/07 09:10:47;;;;;;;5.25;4.72;;;;;;;35.79;27.17;99317.69;5152233;27;20684;-43
2022/08/07 09:13:22;;;;;;;5.28;4.10;;;;;;;35.20;27.48;99328.59;5152548;27;20466;-45
2022/08/07 09:16:03;;;;;;;4.70;3.80;;;;;;;34.71;28.10;99321.38;5152644;27;20019;-44
2022/08/07 09:18:50;;;;;;;6.03;4.20;;;;;;;35.19;28.00;99318.75;5152273;27;20015;-44
2022/08/07 09:21:44;;;;;;;4.32;3.90;;;;;;;35.36;27.20;99317.31;5151885;27;20032;-37
2022/08/07 09:24:43;;;;;;;4.78;3.90;;;;;;;35.49;27.26;99320.59;5152014;27;20019;-37
2022/08/07 09:27:36;;;;;;;4.28;3.85;;;;;;;34.70;28.25;99317.00;5151073;27;20681;-37
2022/08/07 09:30:06;;;;;;;4.35;3.95;;;;;;;35.57;26.67;99316.72;5135605;27;20064;-37
2022/08/07 09:32:55;;;;;;;4.75;3.58;;;;;;;35.24;26.84;99306.53;5131174;27;20023;-37
2022/08/07 09:35:48;;;;;;;5.03;3.83;;;;;;;35.40;26.83;99311.84;5131377;27;20034;-47
2022/08/07 09:38:38;;;;;;;5.38;3.70;;;;;;;35.14;27.14;99310.75;5131270;27;20019;-43
2022/08/07 09:41:21;;;;;;;;;;;;;;;34.91;27.90;99316.44;5131463;28;20072;-43
2022/08/07 09:44:11;;;;;;;4.65;3.97;;;;;;;34.64;27.55;99308.22;5130658;27;19994;-44
2022/08/07 09:47:07;;;;;;;4.32;3.92;;;;;;;34.84;27.48;99300.59;5133363;27;20035;-43
2022/08/07 09:50:13;;;;;;;4.47;3.80;;;;;;;34.77;27.89;99297.75;5151296;27;20042;-37
2022/08/07 09:52:59;;;;;;;6.60;4.22;;;;;;;34.61;28.01;99297.91;5146687;27;20035;-37
2022/08/07 09:56:13;;;;;;;4.97;3.88;;;;;;;33.92;28.35;99300.13;5151452;27;20361;-37
2022/08/07 09:59:01;;;;;;;4.75;3.95;;;;;;;34.15;28.34;99298.09;5140815;27;20378;-36
2022/08/07 10:01:56;;;;;;;6.13;3.60;;;;;;;34.31;27.57;99288.84;5137300;27;20021;-36
2022/08/07 10:04:40;;;;;;;3.85;3.55;;;;;;;34.77;26.89;99288.66;5151109;27;20543;-37
2022/08/07 10:07:40;;;;;;;4.10;3.70;;;;;;;34.81;26.86;99278.44;5151994;27;20015;-37
2022/08/07 10:10:20;;;;;;;3.60;3.30;;;;;;;35.38;27.21;99278.22;5151145;27;20053;-36
2022/08/07 10:13:01;;;;;;;3.95;3.47;;;;;;;35.42;26.16;99276.28;5151129;27;20029;-37
2022/08/07 10:15:32;;;;;;;4.18;3.55;;;;;;;35.73;25.70;99265.88;5153733;27;20465;-37
2022/08/07 10:18:05;;;;;;;4.97;3.53;;;;;;;35.28;26.38;99265.91;5155233;27;20023;-38
2022/08/07 10:21:12;;;;;;;3.92;3.50;;;;;;;35.74;25.57;99264.72;5154141;27;20023;-35
2022/08/07 10:23:52;;;;;;;4.65;3.53;;;;;;;36.01;24.99;99259.72;5154789;27;20054;-37
2022/08/07 10:26:40;;;;;;;4.70;3.50;;;;;;;35.69;25.38;99265.84;5155008;27;20047;-38
2022/08/07 10:29:15;;;;;;;3.85;3.45;;;;;;;35.56;25.27;99267.31;5154577;27;20027;-36
2022/08/07 10:31:40;;;;;;;4.18;3.38;;;;;;;35.70;25.75;99261.09;5155196;27;20484;-37
2022/08/07 10:34:21;;;;;;;5.15;3.60;;;;;;;35.35;26.14;99260.41;5145149;27;20024;-37
2022/08/07 10:37:04;;;;;;;3.80;3.40;;;;;;;35.25;25.47;99255.59;5132863;27;20058;-38
2022/08/07 10:40:17;;;;;;;3.92;3.50;;;;;;;35.78;24.82;99246.16;5132650;27;20109;-38
2022/08/07 10:43:10;;;;;;;3.97;3.47;;;;;;;35.57;25.04;99255.84;5069261;28;20024;-37
2022/08/07 10:45:38;;;;;;;3.90;3.60;;;;;;;35.41;25.39;99261.66;5132590;27;20042;-37
2022/08/07 10:48:25;;;;;;;3.40;3.10;;;;;;;34.81;25.38;99256.34;5135095;27;20110;-36
2022/08/07 10:51:05;;;;;;;3.30;3.00;;;;;;;35.17;24.98;99251.97;5135190;27;20432;-37
2022/08/07 10:53:40;;;;;;;3.33;3.03;;;;;;;35.00;25.41;99250.59;5139018;27;20106;-37
2022/08/07 10:56:17;;;;;;;3.47;3.17;;;;;;;35.39;24.55;99247.41;5144175;27;20033;-37
2022/08/07 10:58:55;;;;;;;4.65;2.92;;;;;;;35.16;24.56;99255.09;5152080;27;20068;-37
2022/08/07 11:01:29;;;;;;;5.32;3.05;;;;;;;35.33;24.29;99240.66;5152379;27;20053;-36
2022/08/07 11:04:27;;;;;;;3.78;3.10;;;;;;;35.53;24.92;99243.97;5152479;27;20094;-37
2022/08/07 11:06:59;;;;;;;3.25;2.95;;;;;;;36.03;24.04;99232.44;5155399;27;20027;-37
2022/08/07 11:09:31;;;;;;;3.30;3.00;;;;;;;35.17;24.96;99245.63;5155230;27;20046;-37
2022/08/07 11:11:56;;;;;;;3.90;3.30;;;;;;;35.43;24.65;99237.19;5154764;27;20405;-38
2022/08/07 11:14:45;;;;;;;4.35;3.00;;;;;;;35.26;24.52;99240.59;5154897;27;20034;-37
2022/08/07 11:17:20;;;;;;;4.15;3.22;;;;;;;35.18;24.55;99233.41;5151386;27;20031;-37
2022/08/07 11:19:54;;;;;;;4.35;3.10;;;;;;;35.62;23.62;99236.13;5153809;27;20129;-37
2022/08/07 11:22:29;;;;;;;3.42;3.10;;;;;;;35.70;24.51;99222.34;5154995;27;20076;-37
2022/08/07 11:25:24;;;;;;;5.28;3.00;;;;;;;36.43;23.62;99225.13;5153522;27;20355;-38
2022/08/07 11:28:11;;;;;;;3.30;3.00;;;;;;;36.87;23.00;99220.50;5154687;27;20151;-37
2022/08/07 11:31:01;;;;;;;3.30;3.00;;;;;;;36.14;22.78;99213.91;5154013;27;20027;-38
2022/08/07 11:33:52;;;;;;;4.85;3.28;;;;;;;35.67;23.05;99220.34;5153703;27;20023;-37
2022/08/07 11:36:36;;;;;;;7.75;3.00;;;;;;;35.68;23.75;99208.94;5153280;27;20478;-37
2022/08/07 11:39:04;;;;;;;4.20;3.28;;;;;;;36.20;23.09;99209.59;5153530;27;20073;-37
2022/08/07 11:41:41;;;;;;;3.15;2.75;;;;;;;35.70;23.27;99220.41;5153372;27;20026;-37
2022/08/07 11:44:31;;;;;;;3.40;3.10;;;;;;;36.06;22.66;99194.88;5151915;27;20062;-37
2022/08/07 11:47:18;;;;;;;6.55;4.20;;;;;;;36.23;22.93;99208.03;5152133;27;20019;-36
2022/08/07 11:50:00;;;;;;;6.40;3.50;;;;;;;36.47;23.38;99200.19;5152143;27;20046;-38
2022/08/07 11:52:48;;;;;;;4.95;3.25;;;;;;;37.04;21.94;99196.75;5152543;27;20034;-37
2022/08/07 11:55:19;;;;;;;4.15;3.47;;;;;;;37.16;21.37;99196.38;5153500;27;20049;-38
2022/08/07 11:57:47;;;;;;;3.70;3.30;;;;;;;37.39;21.01;99195.16;5153300;27;20048;-36
2022/08/07 12:00:18;;;;;;;4.50;3.45;;;;;;;37.17;21.91;99201.53;5153275;27;20026;-36
2022/08/07 12:03:05;;;;;;;3.50;3.20;;;;;;;37.45;21.72;99194.38;5153289;27;20034;-37